sensor_id;sensor_type;location;lat;lon;timestamp;P1;durP1;ratioP1;P2;durP2;ratioP2
83684;SDS011;73666;51.304;5.776;2024-01-06T00:02:25;16.35;;;8.05;;
83684;SDS011;73666;51.304;5.776;2024-01-06T00:07:26;16.67;;;8.73;;
83684;SDS011;73666;51.304;5.776;2024-01-06T00:12:27;18.30;;;8.77;;
83684;SDS011;73666;51.304;5.776;2024-01-06T00:17:28;18.88;;;8.70;;
83684;SDS011;73666;51.304;5.776;2024-01-06T00:22:28;17.63;;;9.43;;
83684;SDS011;73666;51.304;5.776;2024-01-06T00:27:29;22.85;;;10.40;;
83684;SDS011;73666;51.304;5.776;2024-01-06T00:32:30;19.05;;;9.05;;
83684;SDS011;73666;51.304;5.776;2024-01-06T00:37:31;17.02;;;8.52;;
83684;SDS011;73666;51.304;5.776;2024-01-06T00:42:31;21.30;;;10.30;;
83684;SDS011;73666;51.304;5.776;2024-01-06T00:47:32;16.75;;;8.63;;
83684;SDS011;73666;51.304;5.776;2024-01-06T00:52:33;19.20;;;10.00;;
83684;SDS011;73666;51.304;5.776;2024-01-06T00:57:34;18.75;;;9.27;;
83684;SDS011;73666;51.304;5.776;2024-01-06T01:02:34;15.98;;;9.10;;
83684;SDS011;73666;51.304;5.776;2024-01-06T01:07:38;16.45;;;8.93;;
83684;SDS011;73666;51.304;5.776;2024-01-06T01:12:39;20.65;;;8.60;;
83684;SDS011;73666;51.304;5.776;2024-01-06T01:17:40;20.85;;;9.23;;
83684;SDS011;73666;51.304;5.776;2024-01-06T01:22:41;16.60;;;8.15;;
83684;SDS011;73666;51.304;5.776;2024-01-06T01:27:42;13.77;;;8.13;;
83684;SDS011;73666;51.304;5.776;2024-01-06T01:32:42;16.42;;;8.25;;
83684;SDS011;73666;51.304;5.776;2024-01-06T01:37:43;14.50;;;7.20;;
83684;SDS011;73666;51.304;5.776;2024-01-06T01:42:44;13.52;;;6.55;;
83684;SDS011;73666;51.304;5.776;2024-01-06T01:47:45;14.60;;;7.65;;
83684;SDS011;73666;51.304;5.776;2024-01-06T01:52:46;14.43;;;6.32;;
83684;SDS011;73666;51.304;5.776;2024-01-06T01:57:47;14.63;;;6.97;;
83684;SDS011;73666;51.304;5.776;2024-01-06T02:02:48;11.15;;;6.57;;
83684;SDS011;73666;51.304;5.776;2024-01-06T02:07:49;11.50;;;6.68;;
83684;SDS011;73666;51.304;5.776;2024-01-06T02:12:51;12.85;;;6.68;;
83684;SDS011;73666;51.304;5.776;2024-01-06T02:17:51;14.98;;;6.97;;
83684;SDS011;73666;51.304;5.776;2024-01-06T02:22:52;15.85;;;7.65;;
83684;SDS011;73666;51.304;5.776;2024-01-06T02:27:53;15.52;;;8.13;;
83684;SDS011;73666;51.304;5.776;2024-01-06T02:32:53;15.35;;;7.63;;
83684;SDS011;73666;51.304;5.776;2024-01-06T02:37:54;15.05;;;7.22;;
83684;SDS011;73666;51.304;5.776;2024-01-06T02:42:55;16.98;;;7.75;;
83684;SDS011;73666;51.304;5.776;2024-01-06T02:47:56;14.45;;;6.25;;
83684;SDS011;73666;51.304;5.776;2024-01-06T02:52:56;12.35;;;6.18;;
83684;SDS011;73666;51.304;5.776;2024-01-06T02:57:57;13.25;;;5.38;;
83684;SDS011;73666;51.304;5.776;2024-01-06T03:02:58;13.98;;;6.40;;
83684;SDS011;73666;51.304;5.776;2024-01-06T03:07:59;17.15;;;7.78;;
83684;SDS011;73666;51.304;5.776;2024-01-06T03:12:59;14.20;;;7.50;;
83684;SDS011;73666;51.304;5.776;2024-01-06T03:18:00;15.07;;;7.95;;
83684;SDS011;73666;51.304;5.776;2024-01-06T03:23:01;20.67;;;8.00;;
83684;SDS011;73666;51.304;5.776;2024-01-06T03:28:02;16.77;;;7.70;;
83684;SDS011;73666;51.304;5.776;2024-01-06T03:33:02;14.77;;;6.80;;
83684;SDS011;73666;51.304;5.776;2024-01-06T03:38:03;11.00;;;5.40;;
83684;SDS011;73666;51.304;5.776;2024-01-06T03:43:04;12.48;;;5.43;;
83684;SDS011;73666;51.304;5.776;2024-01-06T03:48:08;11.02;;;5.07;;
83684;SDS011;73666;51.304;5.776;2024-01-06T03:53:09;10.57;;;4.88;;
83684;SDS011;73666;51.304;5.776;2024-01-06T03:58:10;9.50;;;4.45;;
83684;SDS011;73666;51.304;5.776;2024-01-06T04:03:11;9.48;;;4.38;;
83684;SDS011;73666;51.304;5.776;2024-01-06T04:08:13;8.43;;;3.78;;
83684;SDS011;73666;51.304;5.776;2024-01-06T04:13:14;11.55;;;4.65;;
83684;SDS011;73666;51.304;5.776;2024-01-06T04:18:15;10.25;;;4.85;;
83684;SDS011;73666;51.304;5.776;2024-01-06T04:23:16;9.65;;;4.20;;
83684;SDS011;73666;51.304;5.776;2024-01-06T04:28:17;7.80;;;4.10;;
83684;SDS011;73666;51.304;5.776;2024-01-06T04:33:18;5.35;;;2.90;;
83684;SDS011;73666;51.304;5.776;2024-01-06T04:38:18;7.63;;;3.35;;
83684;SDS011;73666;51.304;5.776;2024-01-06T04:43:19;8.43;;;3.72;;
83684;SDS011;73666;51.304;5.776;2024-01-06T04:48:20;8.65;;;3.72;;
83684;SDS011;73666;51.304;5.776;2024-01-06T04:53:21;9.52;;;4.30;;
83684;SDS011;73666;51.304;5.776;2024-01-06T04:58:22;8.90;;;3.97;;
83684;SDS011;73666;51.304;5.776;2024-01-06T05:03:22;9.40;;;4.38;;
83684;SDS011;73666;51.304;5.776;2024-01-06T05:08:23;6.72;;;3.33;;
83684;SDS011;73666;51.304;5.776;2024-01-06T05:13:24;6.65;;;3.47;;
83684;SDS011;73666;51.304;5.776;2024-01-06T05:18:25;8.30;;;4.28;;
83684;SDS011;73666;51.304;5.776;2024-01-06T05:23:25;8.48;;;3.25;;
83684;SDS011;73666;51.304;5.776;2024-01-06T05:28:26;8.43;;;4.05;;
83684;SDS011;73666;51.304;5.776;2024-01-06T05:33:27;7.25;;;4.07;;
83684;SDS011;73666;51.304;5.776;2024-01-06T05:38:28;9.57;;;4.60;;
83684;SDS011;73666;51.304;5.776;2024-01-06T05:43:28;7.80;;;4.10;;
83684;SDS011;73666;51.304;5.776;2024-01-06T05:48:30;9.13;;;3.80;;
83684;SDS011;73666;51.304;5.776;2024-01-06T05:53:31;8.85;;;4.43;;
83684;SDS011;73666;51.304;5.776;2024-01-06T05:58:32;6.60;;;3.35;;
83684;SDS011;73666;51.304;5.776;2024-01-06T06:03:33;7.90;;;3.85;;
83684;SDS011;73666;51.304;5.776;2024-01-06T06:08:34;8.00;;;3.88;;
83684;SDS011;73666;51.304;5.776;2024-01-06T06:13:34;8.10;;;3.90;;
83684;SDS011;73666;51.304;5.776;2024-01-06T06:18:35;7.97;;;3.45;;
83684;SDS011;73666;51.304;5.776;2024-01-06T06:23:36;7.65;;;3.42;;
83684;SDS011;73666;51.304;5.776;2024-01-06T06:28:37;7.40;;;3.50;;
83684;SDS011;73666;51.304;5.776;2024-01-06T06:33:40;7.65;;;3.30;;
83684;SDS011;73666;51.304;5.776;2024-01-06T06:38:42;7.63;;;3.90;;
83684;SDS011;73666;51.304;5.776;2024-01-06T06:43:42;7.47;;;3.90;;
83684;SDS011;73666;51.304;5.776;2024-01-06T06:48:43;8.55;;;3.88;;
83684;SDS011;73666;51.304;5.776;2024-01-06T06:53:44;5.70;;;3.60;;
83684;SDS011;73666;51.304;5.776;2024-01-06T06:58:44;7.32;;;4.13;;
83684;SDS011;73666;51.304;5.776;2024-01-06T07:03:45;8.98;;;4.47;;
83684;SDS011;73666;51.304;5.776;2024-01-06T07:08:46;6.20;;;3.85;;
83684;SDS011;73666;51.304;5.776;2024-01-06T07:13:47;7.15;;;3.42;;
83684;SDS011;73666;51.304;5.776;2024-01-06T07:18:48;6.13;;;4.22;;
83684;SDS011;73666;51.304;5.776;2024-01-06T07:23:48;6.68;;;3.35;;
83684;SDS011;73666;51.304;5.776;2024-01-06T07:28:49;7.50;;;3.50;;
83684;SDS011;73666;51.304;5.776;2024-01-06T07:33:50;6.95;;;3.42;;
83684;SDS011;73666;51.304;5.776;2024-01-06T07:38:51;5.93;;;2.83;;
83684;SDS011;73666;51.304;5.776;2024-01-06T07:43:51;6.40;;;3.35;;
83684;SDS011;73666;51.304;5.776;2024-01-06T07:48:52;11.10;;;3.60;;
83684;SDS011;73666;51.304;5.776;2024-01-06T07:53:53;6.07;;;3.70;;
83684;SDS011;73666;51.304;5.776;2024-01-06T07:58:54;7.22;;;3.00;;
83684;SDS011;73666;51.304;5.776;2024-01-06T08:03:55;7.63;;;3.20;;
83684;SDS011;73666;51.304;5.776;2024-01-06T08:08:55;5.90;;;2.83;;
83684;SDS011;73666;51.304;5.776;2024-01-06T08:13:56;5.72;;;3.33;;
83684;SDS011;73666;51.304;5.776;2024-01-06T08:18:57;8.48;;;3.88;;
83684;SDS011;73666;51.304;5.776;2024-01-06T08:23:57;7.95;;;3.13;;
83684;SDS011;73666;51.304;5.776;2024-01-06T08:28:58;9.60;;;3.90;;
83684;SDS011;73666;51.304;5.776;2024-01-06T08:33:59;9.13;;;3.80;;
83684;SDS011;73666;51.304;5.776;2024-01-06T08:39:00;7.30;;;3.60;;
83684;SDS011;73666;51.304;5.776;2024-01-06T08:44:00;9.73;;;4.28;;
83684;SDS011;73666;51.304;5.776;2024-01-06T08:49:01;6.38;;;3.25;;
83684;SDS011;73666;51.304;5.776;2024-01-06T08:54:02;9.05;;;3.65;;
83684;SDS011;73666;51.304;5.776;2024-01-06T08:59:06;7.85;;;3.45;;
83684;SDS011;73666;51.304;5.776;2024-01-06T09:04:06;9.88;;;4.53;;
83684;SDS011;73666;51.304;5.776;2024-01-06T09:09:08;12.35;;;4.38;;
83684;SDS011;73666;51.304;5.776;2024-01-06T09:14:09;9.30;;;3.88;;
83684;SDS011;73666;51.304;5.776;2024-01-06T09:19:13;6.13;;;3.35;;
83684;SDS011;73666;51.304;5.776;2024-01-06T09:24:14;7.70;;;4.00;;
83684;SDS011;73666;51.304;5.776;2024-01-06T09:29:15;8.73;;;3.95;;
83684;SDS011;73666;51.304;5.776;2024-01-06T09:34:16;5.75;;;3.22;;
83684;SDS011;73666;51.304;5.776;2024-01-06T09:39:17;9.27;;;3.88;;
83684;SDS011;73666;51.304;5.776;2024-01-06T09:44:17;8.18;;;3.75;;
83684;SDS011;73666;51.304;5.776;2024-01-06T09:49:20;8.43;;;4.05;;
83684;SDS011;73666;51.304;5.776;2024-01-06T09:54:23;8.57;;;4.45;;
83684;SDS011;73666;51.304;5.776;2024-01-06T09:59:28;8.77;;;4.20;;
83684;SDS011;73666;51.304;5.776;2024-01-06T10:04:34;9.25;;;3.85;;
83684;SDS011;73666;51.304;5.776;2024-01-06T10:09:35;8.93;;;4.43;;
83684;SDS011;73666;51.304;5.776;2024-01-06T10:14:36;9.13;;;4.90;;
83684;SDS011;73666;51.304;5.776;2024-01-06T10:19:38;18.55;;;4.82;;
83684;SDS011;73666;51.304;5.776;2024-01-06T10:24:38;10.77;;;4.95;;
83684;SDS011;73666;51.304;5.776;2024-01-06T10:29:39;7.35;;;3.50;;
83684;SDS011;73666;51.304;5.776;2024-01-06T10:34:40;9.35;;;4.72;;
83684;SDS011;73666;51.304;5.776;2024-01-06T10:39:45;9.27;;;4.38;;
83684;SDS011;73666;51.304;5.776;2024-01-06T10:44:46;9.80;;;4.28;;
83684;SDS011;73666;51.304;5.776;2024-01-06T10:49:48;8.73;;;4.25;;
83684;SDS011;73666;51.304;5.776;2024-01-06T10:54:49;7.53;;;4.43;;
83684;SDS011;73666;51.304;5.776;2024-01-06T10:59:53;12.95;;;5.03;;
83684;SDS011;73666;51.304;5.776;2024-01-06T11:04:54;7.88;;;4.57;;
83684;SDS011;73666;51.304;5.776;2024-01-06T11:15:08;7.85;;;3.53;;
83684;SDS011;73666;51.304;5.776;2024-01-06T11:20:09;6.40;;;4.13;;
83684;SDS011;73666;51.304;5.776;2024-01-06T11:25:13;9.93;;;4.30;;
83684;SDS011;73666;51.304;5.776;2024-01-06T11:30:22;7.97;;;2.95;;
83684;SDS011;73666;51.304;5.776;2024-01-06T11:35:27;8.15;;;4.03;;
83684;SDS011;73666;51.304;5.776;2024-01-06T11:40:31;7.70;;;3.90;;
83684;SDS011;73666;51.304;5.776;2024-01-06T11:50:40;6.80;;;3.22;;
83684;SDS011;73666;51.304;5.776;2024-01-06T11:55:41;6.35;;;3.80;;
83684;SDS011;73666;51.304;5.776;2024-01-06T12:00:42;8.77;;;4.15;;
83684;SDS011;73666;51.304;5.776;2024-01-06T12:06:01;8.57;;;4.85;;
83684;SDS011;73666;51.304;5.776;2024-01-06T12:11:03;8.25;;;4.65;;
83684;SDS011;73666;51.304;5.776;2024-01-06T12:16:04;7.05;;;3.97;;
83684;SDS011;73666;51.304;5.776;2024-01-06T12:21:05;8.65;;;3.90;;
83684;SDS011;73666;51.304;5.776;2024-01-06T12:26:06;7.32;;;4.40;;
83684;SDS011;73666;51.304;5.776;2024-01-06T12:31:10;7.07;;;4.18;;
83684;SDS011;73666;51.304;5.776;2024-01-06T12:36:12;7.28;;;3.90;;
83684;SDS011;73666;51.304;5.776;2024-01-06T12:41:13;6.93;;;3.70;;
83684;SDS011;73666;51.304;5.776;2024-01-06T12:46:13;6.22;;;3.42;;
83684;SDS011;73666;51.304;5.776;2024-01-06T12:51:14;6.53;;;3.15;;
83684;SDS011;73666;51.304;5.776;2024-01-06T12:56:18;6.93;;;3.90;;
83684;SDS011;73666;51.304;5.776;2024-01-06T13:01:19;5.65;;;3.60;;
83684;SDS011;73666;51.304;5.776;2024-01-06T13:06:20;9.27;;;4.60;;
83684;SDS011;73666;51.304;5.776;2024-01-06T13:11:21;6.78;;;4.07;;
83684;SDS011;73666;51.304;5.776;2024-01-06T13:16:22;6.38;;;3.28;;
83684;SDS011;73666;51.304;5.776;2024-01-06T13:21:22;6.68;;;4.18;;
83684;SDS011;73666;51.304;5.776;2024-01-06T13:26:24;7.95;;;3.20;;
83684;SDS011;73666;51.304;5.776;2024-01-06T13:31:25;6.93;;;3.58;;
83684;SDS011;73666;51.304;5.776;2024-01-06T13:36:26;9.10;;;4.00;;
83684;SDS011;73666;51.304;5.776;2024-01-06T13:41:28;6.28;;;3.63;;
83684;SDS011;73666;51.304;5.776;2024-01-06T13:46:28;9.75;;;4.32;;
83684;SDS011;73666;51.304;5.776;2024-01-06T13:51:29;9.15;;;4.68;;
83684;SDS011;73666;51.304;5.776;2024-01-06T13:56:30;9.35;;;4.55;;
83684;SDS011;73666;51.304;5.776;2024-01-06T14:01:31;7.68;;;4.93;;
83684;SDS011;73666;51.304;5.776;2024-01-06T14:06:32;3.97;;;2.22;;
83684;SDS011;73666;51.304;5.776;2024-01-06T14:11:33;8.55;;;2.78;;
83684;SDS011;73666;51.304;5.776;2024-01-06T14:16:34;6.28;;;3.40;;
83684;SDS011;73666;51.304;5.776;2024-01-06T14:21:35;4.35;;;2.72;;
83684;SDS011;73666;51.304;5.776;2024-01-06T14:26:36;5.30;;;3.17;;
83684;SDS011;73666;51.304;5.776;2024-01-06T14:31:37;7.00;;;3.53;;
83684;SDS011;73666;51.304;5.776;2024-01-06T14:36:38;7.13;;;4.50;;
83684;SDS011;73666;51.304;5.776;2024-01-06T14:41:40;6.97;;;4.28;;
83684;SDS011;73666;51.304;5.776;2024-01-06T14:46:41;7.82;;;3.53;;
83684;SDS011;73666;51.304;5.776;2024-01-06T14:51:42;6.05;;;4.03;;
83684;SDS011;73666;51.304;5.776;2024-01-06T14:56:44;7.25;;;4.63;;
83684;SDS011;73666;51.304;5.776;2024-01-06T15:01:46;9.30;;;4.38;;
83684;SDS011;73666;51.304;5.776;2024-01-06T15:06:47;8.15;;;3.80;;
83684;SDS011;73666;51.304;5.776;2024-01-06T15:11:49;9.05;;;4.13;;
83684;SDS011;73666;51.304;5.776;2024-01-06T15:16:50;5.78;;;3.83;;
83684;SDS011;73666;51.304;5.776;2024-01-06T15:21:51;8.52;;;4.40;;
83684;SDS011;73666;51.304;5.776;2024-01-06T15:26:52;8.55;;;4.75;;
83684;SDS011;73666;51.304;5.776;2024-01-06T15:31:53;7.55;;;4.55;;
83684;SDS011;73666;51.304;5.776;2024-01-06T15:36:57;8.23;;;4.40;;
83684;SDS011;73666;51.304;5.776;2024-01-06T15:41:58;5.75;;;4.25;;
83684;SDS011;73666;51.304;5.776;2024-01-06T15:46:59;13.15;;;5.25;;
83684;SDS011;73666;51.304;5.776;2024-01-06T15:52:00;8.15;;;4.10;;
83684;SDS011;73666;51.304;5.776;2024-01-06T15:57:01;10.35;;;5.28;;
83684;SDS011;73666;51.304;5.776;2024-01-06T16:02:02;10.35;;;4.97;;
83684;SDS011;73666;51.304;5.776;2024-01-06T16:07:03;7.82;;;4.60;;
83684;SDS011;73666;51.304;5.776;2024-01-06T16:12:05;6.80;;;3.60;;
83684;SDS011;73666;51.304;5.776;2024-01-06T16:17:07;9.40;;;4.57;;
83684;SDS011;73666;51.304;5.776;2024-01-06T16:22:08;10.88;;;5.53;;
83684;SDS011;73666;51.304;5.776;2024-01-06T16:27:09;11.55;;;5.30;;
83684;SDS011;73666;51.304;5.776;2024-01-06T16:32:10;12.40;;;5.60;;
83684;SDS011;73666;51.304;5.776;2024-01-06T16:37:18;9.95;;;4.25;;
83684;SDS011;73666;51.304;5.776;2024-01-06T16:42:20;10.77;;;5.78;;
83684;SDS011;73666;51.304;5.776;2024-01-06T16:47:21;9.93;;;5.38;;
83684;SDS011;73666;51.304;5.776;2024-01-06T16:52:21;11.80;;;5.82;;
83684;SDS011;73666;51.304;5.776;2024-01-06T16:57:24;12.80;;;5.50;;
83684;SDS011;73666;51.304;5.776;2024-01-06T17:02:33;7.72;;;4.07;;
83684;SDS011;73666;51.304;5.776;2024-01-06T17:07:34;12.35;;;5.25;;
83684;SDS011;73666;51.304;5.776;2024-01-06T17:12:35;15.70;;;8.05;;
83684;SDS011;73666;51.304;5.776;2024-01-06T17:17:36;17.15;;;8.07;;
83684;SDS011;73666;51.304;5.776;2024-01-06T17:22:37;6.97;;;4.15;;
83684;SDS011;73666;51.304;5.776;2024-01-06T17:27:39;8.05;;;4.03;;
83684;SDS011;73666;51.304;5.776;2024-01-06T17:32:40;13.95;;;6.18;;
83684;SDS011;73666;51.304;5.776;2024-01-06T17:37:40;13.10;;;5.57;;
83684;SDS011;73666;51.304;5.776;2024-01-06T17:42:42;8.02;;;3.45;;
83684;SDS011;73666;51.304;5.776;2024-01-06T17:47:43;10.50;;;4.60;;
83684;SDS011;73666;51.304;5.776;2024-01-06T17:52:46;12.48;;;6.25;;
83684;SDS011;73666;51.304;5.776;2024-01-06T17:57:49;15.30;;;6.90;;
83684;SDS011;73666;51.304;5.776;2024-01-06T18:02:49;11.98;;;5.45;;
83684;SDS011;73666;51.304;5.776;2024-01-06T18:07:50;12.77;;;6.90;;
83684;SDS011;73666;51.304;5.776;2024-01-06T18:12:51;15.05;;;7.32;;
83684;SDS011;73666;51.304;5.776;2024-01-06T18:17:51;11.27;;;6.70;;
83684;SDS011;73666;51.304;5.776;2024-01-06T18:22:52;12.35;;;5.05;;
83684;SDS011;73666;51.304;5.776;2024-01-06T18:27:53;13.13;;;6.60;;
83684;SDS011;73666;51.304;5.776;2024-01-06T18:32:54;16.83;;;6.57;;
83684;SDS011;73666;51.304;5.776;2024-01-06T18:37:56;13.18;;;6.53;;
83684;SDS011;73666;51.304;5.776;2024-01-06T18:43:00;9.23;;;4.97;;
83684;SDS011;73666;51.304;5.776;2024-01-06T18:48:01;12.98;;;7.40;;
83684;SDS011;73666;51.304;5.776;2024-01-06T18:53:01;15.02;;;5.95;;
83684;SDS011;73666;51.304;5.776;2024-01-06T18:58:02;17.67;;;7.28;;
83684;SDS011;73666;51.304;5.776;2024-01-06T19:03:03;15.82;;;5.95;;
83684;SDS011;73666;51.304;5.776;2024-01-06T19:08:04;12.70;;;6.53;;
83684;SDS011;73666;51.304;5.776;2024-01-06T19:13:05;14.57;;;8.05;;
83684;SDS011;73666;51.304;5.776;2024-01-06T19:18:08;12.30;;;6.68;;
83684;SDS011;73666;51.304;5.776;2024-01-06T19:23:09;15.35;;;6.82;;
83684;SDS011;73666;51.304;5.776;2024-01-06T19:28:10;12.57;;;6.82;;
83684;SDS011;73666;51.304;5.776;2024-01-06T19:33:10;19.90;;;8.77;;
83684;SDS011;73666;51.304;5.776;2024-01-06T19:38:11;17.38;;;8.07;;
83684;SDS011;73666;51.304;5.776;2024-01-06T19:43:12;17.83;;;7.80;;
83684;SDS011;73666;51.304;5.776;2024-01-06T19:48:14;17.70;;;8.18;;
83684;SDS011;73666;51.304;5.776;2024-01-06T19:53:15;18.60;;;7.90;;
83684;SDS011;73666;51.304;5.776;2024-01-06T19:58:16;15.50;;;7.28;;
83684;SDS011;73666;51.304;5.776;2024-01-06T20:03:16;12.95;;;5.82;;
83684;SDS011;73666;51.304;5.776;2024-01-06T20:08:17;16.42;;;7.68;;
83684;SDS011;73666;51.304;5.776;2024-01-06T20:13:18;15.00;;;6.78;;
83684;SDS011;73666;51.304;5.776;2024-01-06T20:18:19;16.67;;;8.82;;
83684;SDS011;73666;51.304;5.776;2024-01-06T20:23:21;14.13;;;7.43;;
83684;SDS011;73666;51.304;5.776;2024-01-06T20:28:22;14.32;;;6.60;;
83684;SDS011;73666;51.304;5.776;2024-01-06T20:33:23;15.82;;;7.60;;
83684;SDS011;73666;51.304;5.776;2024-01-06T20:38:23;17.83;;;9.82;;
83684;SDS011;73666;51.304;5.776;2024-01-06T20:43:24;13.43;;;7.53;;
83684;SDS011;73666;51.304;5.776;2024-01-06T20:48:25;7.07;;;4.40;;
83684;SDS011;73666;51.304;5.776;2024-01-06T20:53:26;16.77;;;7.78;;
83684;SDS011;73666;51.304;5.776;2024-01-06T20:58:27;14.75;;;7.20;;
83684;SDS011;73666;51.304;5.776;2024-01-06T21:03:30;13.50;;;7.53;;
83684;SDS011;73666;51.304;5.776;2024-01-06T21:08:31;14.48;;;7.22;;
83684;SDS011;73666;51.304;5.776;2024-01-06T21:13:34;16.85;;;6.88;;
83684;SDS011;73666;51.304;5.776;2024-01-06T21:18:36;18.33;;;8.10;;
83684;SDS011;73666;51.304;5.776;2024-01-06T21:23:37;14.10;;;7.22;;
83684;SDS011;73666;51.304;5.776;2024-01-06T21:28:38;13.43;;;6.60;;
83684;SDS011;73666;51.304;5.776;2024-01-06T21:33:39;20.77;;;6.90;;
83684;SDS011;73666;51.304;5.776;2024-01-06T21:38:39;17.08;;;7.60;;
83684;SDS011;73666;51.304;5.776;2024-01-06T21:43:42;13.88;;;6.63;;
83684;SDS011;73666;51.304;5.776;2024-01-06T21:48:43;16.23;;;7.95;;
83684;SDS011;73666;51.304;5.776;2024-01-06T21:53:43;14.38;;;6.53;;
83684;SDS011;73666;51.304;5.776;2024-01-06T21:58:44;25.13;;;10.52;;
83684;SDS011;73666;51.304;5.776;2024-01-06T22:03:45;10.77;;;4.50;;
83684;SDS011;73666;51.304;5.776;2024-01-06T22:08:45;23.90;;;13.27;;
83684;SDS011;73666;51.304;5.776;2024-01-06T22:13:46;17.67;;;9.82;;
83684;SDS011;73666;51.304;5.776;2024-01-06T22:18:47;15.57;;;7.28;;
83684;SDS011;73666;51.304;5.776;2024-01-06T22:23:47;12.52;;;6.63;;
83684;SDS011;73666;51.304;5.776;2024-01-06T22:28:48;17.30;;;8.80;;
83684;SDS011;73666;51.304;5.776;2024-01-06T22:33:49;16.92;;;7.78;;
83684;SDS011;73666;51.304;5.776;2024-01-06T22:38:50;19.38;;;8.73;;
83684;SDS011;73666;51.304;5.776;2024-01-06T22:43:50;15.60;;;8.02;;
83684;SDS011;73666;51.304;5.776;2024-01-06T22:48:51;9.85;;;5.28;;
83684;SDS011;73666;51.304;5.776;2024-01-06T22:53:52;15.45;;;7.88;;
83684;SDS011;73666;51.304;5.776;2024-01-06T22:58:52;13.20;;;7.47;;
83684;SDS011;73666;51.304;5.776;2024-01-06T23:03:53;14.32;;;6.50;;
83684;SDS011;73666;51.304;5.776;2024-01-06T23:08:54;16.30;;;9.00;;
83684;SDS011;73666;51.304;5.776;2024-01-06T23:13:55;19.70;;;7.97;;
83684;SDS011;73666;51.304;5.776;2024-01-06T23:18:56;14.60;;;6.38;;
83684;SDS011;73666;51.304;5.776;2024-01-06T23:23:58;13.88;;;6.88;;
83684;SDS011;73666;51.304;5.776;2024-01-06T23:28:58;13.48;;;6.65;;
83684;SDS011;73666;51.304;5.776;2024-01-06T23:33:59;10.75;;;5.78;;
83684;SDS011;73666;51.304;5.776;2024-01-06T23:39:00;12.25;;;6.78;;
83684;SDS011;73666;51.304;5.776;2024-01-06T23:44:01;15.52;;;7.03;;
83684;SDS011;73666;51.304;5.776;2024-01-06T23:49:01;12.77;;;7.32;;
83684;SDS011;73666;51.304;5.776;2024-01-06T23:54:02;14.35;;;5.93;;
83684;SDS011;73666;51.304;5.776;2024-01-06T23:59:03;15.95;;;7.93;;
